sensor_id;sensor_type;location;lat;lon;timestamp;pressure;altitude;pressure_sealevel;temperature;humidity
6433;BME280;3249;42.690;23.260;2024-02-23T00:02:07;93956.34;;;6.05;97.78
6433;BME280;3249;42.690;23.260;2024-02-23T00:04:33;93963.63;;;6.21;95.41
6433;BME280;3249;42.690;23.260;2024-02-23T00:07:03;93967.75;;;6.48;93.21
6433;BME280;3249;42.690;23.260;2024-02-23T00:09:32;93966.75;;;6.62;90.41
6433;BME280;3249;42.690;23.260;2024-02-23T00:12:01;93962.44;;;6.43;92.66
6433;BME280;3249;42.690;23.260;2024-02-23T00:14:33;93955.56;;;6.31;94.49
6433;BME280;3249;42.690;23.260;2024-02-23T00:17:02;93950.09;;;6.14;96.74
6433;BME280;3249;42.690;23.260;2024-02-23T00:19:31;93949.31;;;6.01;98.21
6433;BME280;3249;42.690;23.260;2024-02-23T00:22:01;93944.97;;;6.01;98.66
6433;BME280;3249;42.690;23.260;2024-02-23T00:24:31;93951.25;;;5.99;98.62
6433;BME280;3249;42.690;23.260;2024-02-23T00:27:00;93955.19;;;5.95;99.51
6433;BME280;3249;42.690;23.260;2024-02-23T00:29:34;93943.78;;;5.97;99.85
6433;BME280;3249;42.690;23.260;2024-02-23T00:32:07;93938.88;;;5.89;100.00
6433;BME280;3249;42.690;23.260;2024-02-23T00:34:37;93954.00;;;5.97;100.00
6433;BME280;3249;42.690;23.260;2024-02-23T00:37:06;93950.47;;;6.24;98.58
6433;BME280;3249;42.690;23.260;2024-02-23T00:39:35;93945.94;;;6.39;96.56
6433;BME280;3249;42.690;23.260;2024-02-23T00:42:05;93944.19;;;6.20;96.92
6433;BME280;3249;42.690;23.260;2024-02-23T00:44:37;93921.97;;;5.95;99.88
6433;BME280;3249;42.690;23.260;2024-02-23T00:47:07;93940.84;;;5.94;99.70
6433;BME280;3249;42.690;23.260;2024-02-23T00:49:36;93943.38;;;6.20;98.45
6433;BME280;3249;42.690;23.260;2024-02-23T00:52:06;93931.19;;;6.28;97.65
6433;BME280;3249;42.690;23.260;2024-02-23T00:54:35;93928.06;;;6.39;96.20
6433;BME280;3249;42.690;23.260;2024-02-23T00:57:04;93939.63;;;6.55;95.05
6433;BME280;3249;42.690;23.260;2024-02-23T00:59:36;93934.94;;;6.26;96.64
6433;BME280;3249;42.690;23.260;2024-02-23T01:02:07;93929.66;;;6.14;98.41
6433;BME280;3249;42.690;23.260;2024-02-23T01:04:36;93920.94;;;6.41;95.58
6433;BME280;3249;42.690;23.260;2024-02-23T01:07:05;93907.63;;;6.00;99.12
6433;BME280;3249;42.690;23.260;2024-02-23T01:09:35;93912.75;;;6.00;99.16
6433;BME280;3249;42.690;23.260;2024-02-23T01:12:04;93917.28;;;6.05;98.63
6433;BME280;3249;42.690;23.260;2024-02-23T01:14:37;93913.34;;;6.15;99.05
6433;BME280;3249;42.690;23.260;2024-02-23T01:17:06;93909.19;;;6.01;98.43
6433;BME280;3249;42.690;23.260;2024-02-23T01:19:35;93897.22;;;5.95;99.40
6433;BME280;3249;42.690;23.260;2024-02-23T01:22:05;93906.47;;;5.96;99.08
6433;BME280;3249;42.690;23.260;2024-02-23T01:24:34;93906.06;;;6.06;97.87
6433;BME280;3249;42.690;23.260;2024-02-23T01:27:04;93896.84;;;5.98;98.91
6433;BME280;3249;42.690;23.260;2024-02-23T01:29:37;93905.66;;;6.15;96.53
6433;BME280;3249;42.690;23.260;2024-02-23T01:32:06;93897.75;;;6.36;95.05
6433;BME280;3249;42.690;23.260;2024-02-23T01:34:36;93896.78;;;6.44;94.24
6433;BME280;3249;42.690;23.260;2024-02-23T01:37:05;93899.31;;;6.50;93.54
6433;BME280;3249;42.690;23.260;2024-02-23T01:39:34;93912.09;;;6.50;94.04
6433;BME280;3249;42.690;23.260;2024-02-23T01:42:04;93894.97;;;6.57;94.54
6433;BME280;3249;42.690;23.260;2024-02-23T01:44:33;93901.69;;;6.39;94.98
6433;BME280;3249;42.690;23.260;2024-02-23T01:47:06;93893.59;;;6.55;95.89
6433;BME280;3249;42.690;23.260;2024-02-23T01:49:36;93898.50;;;6.56;95.95
6433;BME280;3249;42.690;23.260;2024-02-23T01:52:05;93889.84;;;6.57;95.76
6433;BME280;3249;42.690;23.260;2024-02-23T01:54:35;93881.44;;;6.50;95.30
6433;BME280;3249;42.690;23.260;2024-02-23T01:57:05;93888.69;;;6.47;94.66
6433;BME280;3249;42.690;23.260;2024-02-23T01:59:36;93865.94;;;6.32;95.89
6433;BME280;3249;42.690;23.260;2024-02-23T02:02:10;93882.81;;;6.46;95.81
6433;BME280;3249;42.690;23.260;2024-02-23T02:04:39;93885.97;;;6.35;96.81
6433;BME280;3249;42.690;23.260;2024-02-23T02:07:09;93886.72;;;6.55;94.80
6433;BME280;3249;42.690;23.260;2024-02-23T02:09:39;93877.91;;;6.32;97.24
6433;BME280;3249;42.690;23.260;2024-02-23T02:12:08;93866.50;;;6.41;96.65
6433;BME280;3249;42.690;23.260;2024-02-23T02:14:38;93848.66;;;5.69;100.00
6433;BME280;3249;42.690;23.260;2024-02-23T02:17:09;93845.94;;;5.84;100.00
6433;BME280;3249;42.690;23.260;2024-02-23T02:19:38;93871.06;;;6.00;99.94
6433;BME280;3249;42.690;23.260;2024-02-23T02:22:07;93874.19;;;6.21;98.71
6433;BME280;3249;42.690;23.260;2024-02-23T02:24:38;93871.44;;;6.23;97.44
6433;BME280;3249;42.690;23.260;2024-02-23T02:27:09;93878.53;;;6.21;97.76
6433;BME280;3249;42.690;23.260;2024-02-23T02:29:39;93882.47;;;6.23;97.95
6433;BME280;3249;42.690;23.260;2024-02-23T02:32:10;93869.69;;;6.23;97.52
6433;BME280;3249;42.690;23.260;2024-02-23T02:34:41;93890.13;;;6.23;98.70
6433;BME280;3249;42.690;23.260;2024-02-23T02:37:10;93871.84;;;6.26;98.24
6433;BME280;3249;42.690;23.260;2024-02-23T02:39:39;93865.97;;;5.80;100.00
6433;BME280;3249;42.690;23.260;2024-02-23T02:42:08;93879.91;;;6.04;100.00
6433;BME280;3249;42.690;23.260;2024-02-23T02:44:37;93888.97;;;6.13;100.00
6433;BME280;3249;42.690;23.260;2024-02-23T02:47:11;93878.34;;;6.29;99.82
6433;BME280;3249;42.690;23.260;2024-02-23T02:49:40;93888.97;;;5.93;100.00
6433;BME280;3249;42.690;23.260;2024-02-23T02:52:09;93880.91;;;5.96;100.00
6433;BME280;3249;42.690;23.260;2024-02-23T02:54:39;93863.59;;;5.46;100.00
6433;BME280;3249;42.690;23.260;2024-02-23T02:57:08;93868.72;;;5.53;100.00
6433;BME280;3249;42.690;23.260;2024-02-23T02:59:38;93876.19;;;5.67;100.00
6433;BME280;3249;42.690;23.260;2024-02-23T03:02:08;93884.47;;;5.82;100.00
6433;BME280;3249;42.690;23.260;2024-02-23T03:04:46;93880.50;;;6.12;100.00
6433;BME280;3249;42.690;23.260;2024-02-23T03:07:16;93884.84;;;5.99;100.00
6433;BME280;3249;42.690;23.260;2024-02-23T03:09:45;93890.69;;;6.25;100.00
6433;BME280;3249;42.690;23.260;2024-02-23T03:12:16;93889.31;;;6.29;100.00
6433;BME280;3249;42.690;23.260;2024-02-23T03:14:46;93884.78;;;6.38;100.00
6433;BME280;3249;42.690;23.260;2024-02-23T03:17:15;93887.97;;;6.14;100.00
6433;BME280;3249;42.690;23.260;2024-02-23T03:19:47;93884.41;;;6.28;100.00
6433;BME280;3249;42.690;23.260;2024-02-23T03:22:18;93893.59;;;6.48;100.00
6433;BME280;3249;42.690;23.260;2024-02-23T03:24:59;93882.41;;;6.56;99.79
6433;BME280;3249;42.690;23.260;2024-02-23T03:27:35;93884.06;;;6.11;100.00
6433;BME280;3249;42.690;23.260;2024-02-23T03:30:05;93879.69;;;6.31;100.00
6433;BME280;3249;42.690;23.260;2024-02-23T03:32:36;93878.28;;;6.48;100.00
6433;BME280;3249;42.690;23.260;2024-02-23T03:35:09;93884.53;;;6.59;100.00
6433;BME280;3249;42.690;23.260;2024-02-23T03:37:38;93869.69;;;6.17;100.00
6433;BME280;3249;42.690;23.260;2024-02-23T03:40:09;93881.84;;;6.41;100.00
6433;BME280;3249;42.690;23.260;2024-02-23T03:42:39;93876.50;;;6.49;100.00
6433;BME280;3249;42.690;23.260;2024-02-23T03:45:09;93883.19;;;6.50;100.00
6433;BME280;3249;42.690;23.260;2024-02-23T03:47:38;93861.66;;;5.94;100.00
6433;BME280;3249;42.690;23.260;2024-02-23T03:50:10;93875.41;;;5.99;100.00
6433;BME280;3249;42.690;23.260;2024-02-23T03:52:40;93874.22;;;6.02;100.00
6433;BME280;3249;42.690;23.260;2024-02-23T03:55:09;93887.19;;;6.13;100.00
6433;BME280;3249;42.690;23.260;2024-02-23T03:57:39;93874.19;;;6.21;100.00
6433;BME280;3249;42.690;23.260;2024-02-23T04:00:09;93866.75;;;6.13;100.00
6433;BME280;3249;42.690;23.260;2024-02-23T04:02:41;93860.84;;;5.74;100.00
6433;BME280;3249;42.690;23.260;2024-02-23T04:05:13;93871.50;;;5.90;100.00
6433;BME280;3249;42.690;23.260;2024-02-23T04:07:43;93883.66;;;6.01;100.00
6433;BME280;3249;42.690;23.260;2024-02-23T04:10:12;93884.06;;;6.11;100.00
6433;BME280;3249;42.690;23.260;2024-02-23T04:12:42;93878.91;;;5.79;100.00
6433;BME280;3249;42.690;23.260;2024-02-23T04:15:11;93882.09;;;5.87;100.00
6433;BME280;3249;42.690;23.260;2024-02-23T04:17:41;93879.94;;;5.97;100.00
6433;BME280;3249;42.690;23.260;2024-02-23T04:20:13;93883.84;;;6.00;100.00
6433;BME280;3249;42.690;23.260;2024-02-23T04:22:42;93898.22;;;5.94;100.00
6433;BME280;3249;42.690;23.260;2024-02-23T04:25:12;93881.31;;;5.93;100.00
6433;BME280;3249;42.690;23.260;2024-02-23T04:27:42;93883.09;;;5.93;100.00
6433;BME280;3249;42.690;23.260;2024-02-23T04:30:12;93877.75;;;5.62;100.00
6433;BME280;3249;42.690;23.260;2024-02-23T04:32:41;93887.78;;;5.63;100.00
6433;BME280;3249;42.690;23.260;2024-02-23T04:35:13;93881.69;;;5.84;100.00
6433;BME280;3249;42.690;23.260;2024-02-23T04:37:43;93882.28;;;5.92;100.00
6433;BME280;3249;42.690;23.260;2024-02-23T04:40:15;93891.53;;;5.87;100.00
6433;BME280;3249;42.690;23.260;2024-02-23T04:42:44;93884.03;;;5.72;100.00
6433;BME280;3249;42.690;23.260;2024-02-23T04:45:14;93870.66;;;5.31;100.00
6433;BME280;3249;42.690;23.260;2024-02-23T04:47:43;93893.44;;;5.39;100.00
6433;BME280;3249;42.690;23.260;2024-02-23T04:50:15;93894.81;;;5.55;100.00
6433;BME280;3249;42.690;23.260;2024-02-23T04:52:45;93881.59;;;5.19;100.00
6433;BME280;3249;42.690;23.260;2024-02-23T04:55:16;93898.31;;;5.34;100.00
6433;BME280;3249;42.690;23.260;2024-02-23T04:57:45;93895.97;;;5.39;100.00
6433;BME280;3249;42.690;23.260;2024-02-23T05:00:14;93893.81;;;5.49;100.00
6433;BME280;3249;42.690;23.260;2024-02-23T05:02:45;93892.78;;;5.11;100.00
6433;BME280;3249;42.690;23.260;2024-02-23T05:05:19;93890.25;;;5.24;100.00
6433;BME280;3249;42.690;23.260;2024-02-23T05:07:48;93884.94;;;5.19;100.00
6433;BME280;3249;42.690;23.260;2024-02-23T05:10:17;93890.97;;;4.98;100.00
6433;BME280;3249;42.690;23.260;2024-02-23T05:12:48;93905.75;;;5.23;100.00
6433;BME280;3249;42.690;23.260;2024-02-23T05:15:19;93920.69;;;5.32;100.00
6433;BME280;3249;42.690;23.260;2024-02-23T05:17:48;93886.16;;;4.69;100.00
6433;BME280;3249;42.690;23.260;2024-02-23T05:20:20;93941.16;;;4.91;100.00
6433;BME280;3249;42.690;23.260;2024-02-23T05:22:49;93914.28;;;4.89;100.00
6433;BME280;3249;42.690;23.260;2024-02-23T05:25:18;93894.09;;;5.00;100.00
6433;BME280;3249;42.690;23.260;2024-02-23T05:27:48;93915.78;;;5.24;100.00
6433;BME280;3249;42.690;23.260;2024-02-23T05:30:18;93924.06;;;5.39;100.00
6433;BME280;3249;42.690;23.260;2024-02-23T05:32:48;93924.06;;;5.46;100.00
6433;BME280;3249;42.690;23.260;2024-02-23T05:35:19;93923.28;;;5.52;100.00
6433;BME280;3249;42.690;23.260;2024-02-23T05:37:49;93928.78;;;5.49;100.00
6433;BME280;3249;42.690;23.260;2024-02-23T05:40:20;93908.97;;;5.57;100.00
6433;BME280;3249;42.690;23.260;2024-02-23T05:42:49;93926.44;;;5.67;100.00
6433;BME280;3249;42.690;23.260;2024-02-23T05:45:18;93923.69;;;5.68;100.00
6433;BME280;3249;42.690;23.260;2024-02-23T05:47:48;93925.53;;;5.81;100.00
6433;BME280;3249;42.690;23.260;2024-02-23T05:50:20;93905.03;;;5.74;100.00
6433;BME280;3249;42.690;23.260;2024-02-23T05:52:50;93935.13;;;5.85;100.00
6433;BME280;3249;42.690;23.260;2024-02-23T05:55:19;93915.66;;;5.71;100.00
6433;BME280;3249;42.690;23.260;2024-02-23T05:57:49;93938.88;;;5.96;100.00
6433;BME280;3249;42.690;23.260;2024-02-23T06:00:19;93945.56;;;5.90;100.00
6433;BME280;3249;42.690;23.260;2024-02-23T06:02:48;93948.50;;;6.07;100.00
6433;BME280;3249;42.690;23.260;2024-02-23T06:05:21;93956.78;;;6.09;100.00
6433;BME280;3249;42.690;23.260;2024-02-23T06:07:51;93928.47;;;5.91;100.00
6433;BME280;3249;42.690;23.260;2024-02-23T06:10:20;93956.16;;;6.07;100.00
6433;BME280;3249;42.690;23.260;2024-02-23T06:13:00;93953.63;;;6.07;100.00
6433;BME280;3249;42.690;23.260;2024-02-23T06:15:30;93943.00;;;6.23;100.00
6433;BME280;3249;42.690;23.260;2024-02-23T06:18:01;93963.06;;;6.19;100.00
6433;BME280;3249;42.690;23.260;2024-02-23T06:20:32;93948.50;;;6.00;100.00
6433;BME280;3249;42.690;23.260;2024-02-23T06:23:02;93963.44;;;6.10;100.00
6433;BME280;3249;42.690;23.260;2024-02-23T06:25:31;93957.94;;;6.32;100.00
6433;BME280;3249;42.690;23.260;2024-02-23T06:28:01;93961.47;;;6.44;100.00
6433;BME280;3249;42.690;23.260;2024-02-23T06:30:31;93958.31;;;6.55;100.00
6433;BME280;3249;42.690;23.260;2024-02-23T06:33:00;93966.75;;;6.62;100.00
6433;BME280;3249;42.690;23.260;2024-02-23T06:35:32;93970.84;;;6.76;99.96
6433;BME280;3249;42.690;23.260;2024-02-23T06:38:02;93963.22;;;6.63;100.00
6433;BME280;3249;42.690;23.260;2024-02-23T06:40:32;93971.22;;;6.86;99.35
6433;BME280;3249;42.690;23.260;2024-02-23T06:43:02;93965.50;;;6.84;100.00
6433;BME280;3249;42.690;23.260;2024-02-23T06:45:31;93972.75;;;7.00;98.70
6433;BME280;3249;42.690;23.260;2024-02-23T06:48:00;93971.94;;;7.13;97.00
6433;BME280;3249;42.690;23.260;2024-02-23T06:50:32;93982.31;;;7.24;95.93
6433;BME280;3249;42.690;23.260;2024-02-23T06:53:01;93967.16;;;7.23;95.00
6433;BME280;3249;42.690;23.260;2024-02-23T06:55:33;93984.47;;;7.27;93.91
6433;BME280;3249;42.690;23.260;2024-02-23T06:58:03;93984.25;;;7.35;93.97
6433;BME280;3249;42.690;23.260;2024-02-23T07:00:33;93970.81;;;6.96;96.48
6433;BME280;3249;42.690;23.260;2024-02-23T07:03:03;93983.94;;;7.12;95.84
6433;BME280;3249;42.690;23.260;2024-02-23T07:05:35;93980.31;;;7.33;94.94
6433;BME280;3249;42.690;23.260;2024-02-23T07:08:05;93979.13;;;7.35;92.54
6433;BME280;3249;42.690;23.260;2024-02-23T07:10:34;93969.41;;;7.06;97.49
6433;BME280;3249;42.690;23.260;2024-02-23T07:13:04;93960.50;;;7.15;96.18
6433;BME280;3249;42.690;23.260;2024-02-23T07:15:34;93976.13;;;7.45;93.65
6433;BME280;3249;42.690;23.260;2024-02-23T07:18:04;93960.63;;;7.33;96.58
6433;BME280;3249;42.690;23.260;2024-02-23T07:20:37;93985.94;;;7.54;97.04
6433;BME280;3249;42.690;23.260;2024-02-23T07:23:07;93976.72;;;7.78;93.64
6433;BME280;3249;42.690;23.260;2024-02-23T07:25:36;93969.69;;;7.67;93.98
6433;BME280;3249;42.690;23.260;2024-02-23T07:28:07;93972.72;;;7.88;91.33
6433;BME280;3249;42.690;23.260;2024-02-23T07:30:36;93986.84;;;8.04;89.21
6433;BME280;3249;42.690;23.260;2024-02-23T07:33:05;93954.38;;;7.60;93.41
6433;BME280;3249;42.690;23.260;2024-02-23T07:35:37;93958.06;;;7.33;97.09
6433;BME280;3249;42.690;23.260;2024-02-23T07:38:06;93973.66;;;7.63;94.05
6433;BME280;3249;42.690;23.260;2024-02-23T07:40:38;93974.56;;;7.81;94.10
6433;BME280;3249;42.690;23.260;2024-02-23T07:43:09;93973.28;;;7.97;92.39
6433;BME280;3249;42.690;23.260;2024-02-23T07:45:38;93966.31;;;8.04;91.87
6433;BME280;3249;42.690;23.260;2024-02-23T07:48:09;93976.78;;;8.33;89.34
6433;BME280;3249;42.690;23.260;2024-02-23T07:50:40;93984.09;;;8.54;88.06
6433;BME280;3249;42.690;23.260;2024-02-23T07:53:10;93975.66;;;8.47;88.69
6433;BME280;3249;42.690;23.260;2024-02-23T07:55:39;93968.84;;;8.59;86.90
6433;BME280;3249;42.690;23.260;2024-02-23T07:58:08;93984.41;;;8.64;87.02
6433;BME280;3249;42.690;23.260;2024-02-23T08:00:37;93959.72;;;8.21;93.48
6433;BME280;3249;42.690;23.260;2024-02-23T08:03:06;93971.41;;;8.59;91.70
6433;BME280;3249;42.690;23.260;2024-02-23T08:05:37;93983.59;;;8.88;89.88
6433;BME280;3249;42.690;23.260;2024-02-23T08:08:09;93959.13;;;8.68;90.95
6433;BME280;3249;42.690;23.260;2024-02-23T08:10:40;93964.16;;;8.32;95.88
6433;BME280;3249;42.690;23.260;2024-02-23T08:13:09;93967.44;;;8.63;95.21
6433;BME280;3249;42.690;23.260;2024-02-23T08:15:38;93960.47;;;8.70;93.37
6433;BME280;3249;42.690;23.260;2024-02-23T08:18:07;93959.59;;;8.58;93.50
6433;BME280;3249;42.690;23.260;2024-02-23T08:20:37;93951.03;;;8.46;94.02
6433;BME280;3249;42.690;23.260;2024-02-23T08:23:10;93925.78;;;8.43;94.67
6433;BME280;3249;42.690;23.260;2024-02-23T08:25:39;93965.94;;;8.74;95.53
6433;BME280;3249;42.690;23.260;2024-02-23T08:28:08;93950.94;;;8.95;93.33
6433;BME280;3249;42.690;23.260;2024-02-23T08:30:37;93968.03;;;9.19;92.18
6433;BME280;3249;42.690;23.260;2024-02-23T08:33:07;93971.09;;;9.46;88.36
6433;BME280;3249;42.690;23.260;2024-02-23T08:35:37;93962.47;;;9.40;88.69
6433;BME280;3249;42.690;23.260;2024-02-23T08:38:10;93950.81;;;9.56;88.69
6433;BME280;3249;42.690;23.260;2024-02-23T08:40:39;93952.84;;;9.66;88.21
6433;BME280;3249;42.690;23.260;2024-02-23T08:43:08;93950.63;;;9.69;84.79
6433;BME280;3249;42.690;23.260;2024-02-23T08:45:37;93960.47;;;10.02;84.70
6433;BME280;3249;42.690;23.260;2024-02-23T08:48:07;93946.97;;;10.06;76.87
6433;BME280;3249;42.690;23.260;2024-02-23T08:50:40;93962.69;;;10.39;74.78
6433;BME280;3249;42.690;23.260;2024-02-23T08:53:13;93968.47;;;10.35;74.51
6433;BME280;3249;42.690;23.260;2024-02-23T08:55:42;93962.13;;;10.37;75.56
6433;BME280;3249;42.690;23.260;2024-02-23T08:58:11;93932.59;;;10.51;68.53
6433;BME280;3249;42.690;23.260;2024-02-23T09:00:41;93956.19;;;10.83;68.65
6433;BME280;3249;42.690;23.260;2024-02-23T09:03:10;93960.78;;;11.04;63.65
6433;BME280;3249;42.690;23.260;2024-02-23T09:05:40;93971.63;;;11.06;63.28
6433;BME280;3249;42.690;23.260;2024-02-23T09:08:12;93965.31;;;11.25;60.27
6433;BME280;3249;42.690;23.260;2024-02-23T09:10:42;93960.94;;;11.37;58.70
6433;BME280;3249;42.690;23.260;2024-02-23T09:13:11;93967.47;;;11.16;60.92
6433;BME280;3249;42.690;23.260;2024-02-23T09:15:41;93966.66;;;11.27;59.96
6433;BME280;3249;42.690;23.260;2024-02-23T09:18:11;93971.44;;;11.47;58.46
6433;BME280;3249;42.690;23.260;2024-02-23T09:20:40;93956.66;;;11.42;58.97
6433;BME280;3249;42.690;23.260;2024-02-23T09:23:10;93965.78;;;11.22;60.39
6433;BME280;3249;42.690;23.260;2024-02-23T09:25:42;93968.38;;;11.50;59.53
6433;BME280;3249;42.690;23.260;2024-02-23T09:28:11;93972.91;;;11.43;58.22
6433;BME280;3249;42.690;23.260;2024-02-23T09:30:41;93962.47;;;11.49;58.82
6433;BME280;3249;42.690;23.260;2024-02-23T09:33:10;93969.31;;;11.83;57.17
6433;BME280;3249;42.690;23.260;2024-02-23T09:35:39;93968.09;;;12.02;53.57
6433;BME280;3249;42.690;23.260;2024-02-23T09:38:09;93967.69;;;11.66;57.34
6433;BME280;3249;42.690;23.260;2024-02-23T09:40:41;93971.50;;;11.75;56.54
6433;BME280;3249;42.690;23.260;2024-02-23T09:43:12;93975.72;;;11.81;55.44
6433;BME280;3249;42.690;23.260;2024-02-23T09:45:44;93975.03;;;11.85;55.80
6433;BME280;3249;42.690;23.260;2024-02-23T09:48:14;93966.03;;;12.16;55.18
6433;BME280;3249;42.690;23.260;2024-02-23T09:51:05;93973.47;;;12.12;54.62
6433;BME280;3249;42.690;23.260;2024-02-23T09:53:37;93968.78;;;12.26;52.93
6433;BME280;3249;42.690;23.260;2024-02-23T09:56:11;93973.00;;;12.65;51.17
6433;BME280;3249;42.690;23.260;2024-02-23T09:58:44;93976.69;;;13.02;50.23
6433;BME280;3249;42.690;23.260;2024-02-23T10:01:28;93971.38;;;13.30;48.66
6433;BME280;3249;42.690;23.260;2024-02-23T10:03:58;93969.91;;;13.17;47.16
6433;BME280;3249;42.690;23.260;2024-02-23T10:06:29;93954.69;;;12.99;46.96
6433;BME280;3249;42.690;23.260;2024-02-23T10:08:59;93955.31;;;12.73;47.36
6433;BME280;3249;42.690;23.260;2024-02-23T10:11:32;93952.94;;;12.88;47.38
6433;BME280;3249;42.690;23.260;2024-02-23T10:14:02;93947.97;;;13.20;47.52
6433;BME280;3249;42.690;23.260;2024-02-23T10:16:31;93958.50;;;13.56;46.58
6433;BME280;3249;42.690;23.260;2024-02-23T10:19:00;93950.75;;;13.83;45.64
6433;BME280;3249;42.690;23.260;2024-02-23T10:21:32;93949.00;;;13.62;44.44
6433;BME280;3249;42.690;23.260;2024-02-23T10:24:01;93959.94;;;13.96;43.96
6433;BME280;3249;42.690;23.260;2024-02-23T10:26:33;93965.22;;;14.06;43.95
6433;BME280;3249;42.690;23.260;2024-02-23T10:29:02;93932.81;;;13.71;42.99
6433;BME280;3249;42.690;23.260;2024-02-23T10:31:35;93946.06;;;13.80;43.52
6433;BME280;3249;42.690;23.260;2024-02-23T10:34:08;93944.88;;;13.88;43.50
6433;BME280;3249;42.690;23.260;2024-02-23T10:36:41;93933.38;;;14.05;43.40
6433;BME280;3249;42.690;23.260;2024-02-23T10:39:15;93934.94;;;14.33;43.02
6433;BME280;3249;42.690;23.260;2024-02-23T10:41:54;93927.72;;;14.35;42.96
6433;BME280;3249;42.690;23.260;2024-02-23T10:44:28;93919.75;;;14.41;42.21
6433;BME280;3249;42.690;23.260;2024-02-23T10:46:58;93933.59;;;14.62;41.50
6433;BME280;3249;42.690;23.260;2024-02-23T10:49:29;93904.59;;;14.60;40.72
6433;BME280;3249;42.690;23.260;2024-02-23T10:52:00;93924.88;;;14.73;40.57
6433;BME280;3249;42.690;23.260;2024-02-23T10:54:33;93932.94;;;14.76;40.62
6433;BME280;3249;42.690;23.260;2024-02-23T10:57:06;93931.47;;;14.90;40.73
6433;BME280;3249;42.690;23.260;2024-02-23T10:59:35;93920.47;;;14.73;40.69
6433;BME280;3249;42.690;23.260;2024-02-23T11:02:05;93915.53;;;14.72;40.97
6433;BME280;3249;42.690;23.260;2024-02-23T11:04:36;93918.31;;;14.60;41.47
6433;BME280;3249;42.690;23.260;2024-02-23T11:07:13;93906.75;;;14.73;41.20
6433;BME280;3249;42.690;23.260;2024-02-23T11:09:42;93896.41;;;14.78;40.69
6433;BME280;3249;42.690;23.260;2024-02-23T11:12:22;93896.13;;;14.74;40.05
6433;BME280;3249;42.690;23.260;2024-02-23T11:14:57;93890.78;;;14.91;39.29
6433;BME280;3249;42.690;23.260;2024-02-23T11:17:28;93893.53;;;14.74;40.07
6433;BME280;3249;42.690;23.260;2024-02-23T11:19:58;93896.09;;;14.69;40.32
6433;BME280;3249;42.690;23.260;2024-02-23T11:22:32;93894.59;;;14.78;40.14
6433;BME280;3249;42.690;23.260;2024-02-23T11:25:04;93895.19;;;14.90;39.88
6433;BME280;3249;42.690;23.260;2024-02-23T11:27:37;93889.31;;;15.10;39.52
6433;BME280;3249;42.690;23.260;2024-02-23T11:30:10;93885.63;;;15.01;38.30
6433;BME280;3249;42.690;23.260;2024-02-23T11:32:40;93895.75;;;15.02;38.30
6433;BME280;3249;42.690;23.260;2024-02-23T11:35:11;93887.91;;;14.87;37.93
6433;BME280;3249;42.690;23.260;2024-02-23T11:37:45;93865.13;;;14.89;38.61
6433;BME280;3249;42.690;23.260;2024-02-23T11:40:15;93875.53;;;14.99;38.57
6433;BME280;3249;42.690;23.260;2024-02-23T11:42:48;93891.13;;;15.04;38.43
6433;BME280;3249;42.690;23.260;2024-02-23T11:45:18;93888.84;;;14.71;39.12
6433;BME280;3249;42.690;23.260;2024-02-23T11:47:48;93878.13;;;14.58;39.49
6433;BME280;3249;42.690;23.260;2024-02-23T11:50:17;93877.91;;;14.59;39.75
6433;BME280;3249;42.690;23.260;2024-02-23T11:52:48;93862.56;;;14.53;39.91
6433;BME280;3249;42.690;23.260;2024-02-23T11:55:18;93861.31;;;14.60;39.67
6433;BME280;3249;42.690;23.260;2024-02-23T11:57:52;93855.63;;;14.63;39.74
6433;BME280;3249;42.690;23.260;2024-02-23T12:00:23;93851.75;;;14.66;39.00
6433;BME280;3249;42.690;23.260;2024-02-23T12:02:52;93857.00;;;14.71;39.52
6433;BME280;3249;42.690;23.260;2024-02-23T12:05:22;93859.31;;;14.72;39.25
6433;BME280;3249;42.690;23.260;2024-02-23T12:07:52;93853.16;;;14.83;39.16
6433;BME280;3249;42.690;23.260;2024-02-23T12:10:22;93850.53;;;14.78;39.34
6433;BME280;3249;42.690;23.260;2024-02-23T12:12:55;93849.81;;;14.83;39.17
6433;BME280;3249;42.690;23.260;2024-02-23T12:15:25;93847.72;;;14.80;38.99
6433;BME280;3249;42.690;23.260;2024-02-23T12:17:58;93833.69;;;14.71;38.67
6433;BME280;3249;42.690;23.260;2024-02-23T12:20:27;93839.94;;;14.80;38.65
6433;BME280;3249;42.690;23.260;2024-02-23T12:22:57;93846.41;;;14.77;38.60
6433;BME280;3249;42.690;23.260;2024-02-23T12:25:26;93845.63;;;14.82;38.80
6433;BME280;3249;42.690;23.260;2024-02-23T12:27:58;93839.63;;;14.71;39.11
6433;BME280;3249;42.690;23.260;2024-02-23T12:30:30;93826.41;;;14.68;39.12
6433;BME280;3249;42.690;23.260;2024-02-23T12:33:04;93827.94;;;14.64;38.08
6433;BME280;3249;42.690;23.260;2024-02-23T12:35:34;93830.03;;;14.67;37.42
6433;BME280;3249;42.690;23.260;2024-02-23T12:38:04;93818.03;;;14.51;37.81
6433;BME280;3249;42.690;23.260;2024-02-23T12:40:33;93822.28;;;14.72;37.74
6433;BME280;3249;42.690;23.260;2024-02-23T12:43:05;93816.81;;;14.68;37.71
6433;BME280;3249;42.690;23.260;2024-02-23T12:45:35;93805.66;;;14.63;38.04
6433;BME280;3249;42.690;23.260;2024-02-23T12:48:05;93815.75;;;14.64;37.77
6433;BME280;3249;42.690;23.260;2024-02-23T12:50:34;93810.38;;;14.76;37.23
6433;BME280;3249;42.690;23.260;2024-02-23T12:53:04;93810.94;;;14.88;36.72
6433;BME280;3249;42.690;23.260;2024-02-23T12:55:33;93811.50;;;15.00;36.76
6433;BME280;3249;42.690;23.260;2024-02-23T12:58:05;93807.69;;;15.17;36.84
6433;BME280;3249;42.690;23.260;2024-02-23T13:00:35;93801.97;;;15.15;37.19
6433;BME280;3249;42.690;23.260;2024-02-23T13:03:05;93806.94;;;15.27;37.37
6433;BME280;3249;42.690;23.260;2024-02-23T13:05:34;93807.72;;;15.32;37.51
6433;BME280;3249;42.690;23.260;2024-02-23T13:08:04;93801.03;;;15.41;35.78
6433;BME280;3249;42.690;23.260;2024-02-23T13:10:33;93812.97;;;15.47;34.71
6433;BME280;3249;42.690;23.260;2024-02-23T13:13:06;93793.53;;;15.65;35.09
6433;BME280;3249;42.690;23.260;2024-02-23T13:15:35;93814.81;;;15.72;34.65
6433;BME280;3249;42.690;23.260;2024-02-23T13:18:05;93818.94;;;15.48;34.14
6433;BME280;3249;42.690;23.260;2024-02-23T13:20:35;93814.78;;;15.57;34.84
6433;BME280;3249;42.690;23.260;2024-02-23T13:23:04;93809.84;;;15.55;34.58
6433;BME280;3249;42.690;23.260;2024-02-23T13:25:36;93817.13;;;15.63;34.59
6433;BME280;3249;42.690;23.260;2024-02-23T13:28:08;93817.66;;;15.75;34.77
6433;BME280;3249;42.690;23.260;2024-02-23T13:30:37;93814.81;;;15.77;34.94
6433;BME280;3249;42.690;23.260;2024-02-23T13:33:07;93816.63;;;15.91;34.99